sensor_id;sensor_type;location;lat;lon;timestamp;temperature;humidity
68215;DHT22;55036;52.138;5.236;2024-01-16T00:00:39;2.40;90.70
68215;DHT22;55036;52.138;5.236;2024-01-16T00:03:06;2.40;90.60
68215;DHT22;55036;52.138;5.236;2024-01-16T00:05:33;2.40;90.60
68215;DHT22;55036;52.138;5.236;2024-01-16T00:08:00;2.40;90.60
68215;DHT22;55036;52.138;5.236;2024-01-16T00:10:27;2.30;90.60
68215;DHT22;55036;52.138;5.236;2024-01-16T00:12:53;2.30;90.60
68215;DHT22;55036;52.138;5.236;2024-01-16T00:15:20;2.30;90.40
68215;DHT22;55036;52.138;5.236;2024-01-16T00:17:47;2.30;90.40
68215;DHT22;55036;52.138;5.236;2024-01-16T00:20:15;2.30;90.60
68215;DHT22;55036;52.138;5.236;2024-01-16T00:22:42;2.30;90.50
68215;DHT22;55036;52.138;5.236;2024-01-16T00:25:08;2.30;90.70
68215;DHT22;55036;52.138;5.236;2024-01-16T00:27:36;2.20;90.70
68215;DHT22;55036;52.138;5.236;2024-01-16T00:30:03;2.10;91.70
68215;DHT22;55036;52.138;5.236;2024-01-16T00:32:30;2.10;91.70
68215;DHT22;55036;52.138;5.236;2024-01-16T00:34:56;2.30;91.50
68215;DHT22;55036;52.138;5.236;2024-01-16T00:37:23;2.30;91.30
68215;DHT22;55036;52.138;5.236;2024-01-16T00:39:50;2.40;91.20
68215;DHT22;55036;52.138;5.236;2024-01-16T00:42:16;2.40;91.20
68215;DHT22;55036;52.138;5.236;2024-01-16T00:44:43;2.40;91.00
68215;DHT22;55036;52.138;5.236;2024-01-16T00:47:10;2.40;91.10
68215;DHT22;55036;52.138;5.236;2024-01-16T00:49:37;2.40;90.90
68215;DHT22;55036;52.138;5.236;2024-01-16T00:52:04;2.40;90.90
68215;DHT22;55036;52.138;5.236;2024-01-16T00:54:31;2.40;91.00
68215;DHT22;55036;52.138;5.236;2024-01-16T00:56:57;2.40;90.90
68215;DHT22;55036;52.138;5.236;2024-01-16T00:59:26;2.40;90.80
68215;DHT22;55036;52.138;5.236;2024-01-16T01:01:53;2.40;90.80
68215;DHT22;55036;52.138;5.236;2024-01-16T01:04:20;2.40;90.80
68215;DHT22;55036;52.138;5.236;2024-01-16T01:06:46;2.40;90.70
68215;DHT22;55036;52.138;5.236;2024-01-16T01:09:13;2.40;90.80
68215;DHT22;55036;52.138;5.236;2024-01-16T01:11:40;2.40;90.80
68215;DHT22;55036;52.138;5.236;2024-01-16T01:14:07;2.40;90.90
68215;DHT22;55036;52.138;5.236;2024-01-16T01:16:34;2.40;90.80
68215;DHT22;55036;52.138;5.236;2024-01-16T01:19:00;2.40;90.70
68215;DHT22;55036;52.138;5.236;2024-01-16T01:21:27;2.40;90.70
68215;DHT22;55036;52.138;5.236;2024-01-16T01:23:54;2.40;90.60
68215;DHT22;55036;52.138;5.236;2024-01-16T01:26:21;2.30;90.70
68215;DHT22;55036;52.138;5.236;2024-01-16T01:28:48;2.30;90.80
68215;DHT22;55036;52.138;5.236;2024-01-16T01:31:15;2.30;90.80
68215;DHT22;55036;52.138;5.236;2024-01-16T01:33:41;2.30;90.70
68215;DHT22;55036;52.138;5.236;2024-01-16T01:36:09;2.30;90.70
68215;DHT22;55036;52.138;5.236;2024-01-16T01:38:36;2.30;90.80
68215;DHT22;55036;52.138;5.236;2024-01-16T01:41:03;2.30;90.70
68215;DHT22;55036;52.138;5.236;2024-01-16T01:43:33;2.30;90.80
68215;DHT22;55036;52.138;5.236;2024-01-16T01:46:17;2.40;90.80
68215;DHT22;55036;52.138;5.236;2024-01-16T01:48:46;2.30;90.90
68215;DHT22;55036;52.138;5.236;2024-01-16T01:51:17;2.40;90.80
68215;DHT22;55036;52.138;5.236;2024-01-16T01:53:44;2.40;91.20
68215;DHT22;55036;52.138;5.236;2024-01-16T01:56:14;2.40;91.10
68215;DHT22;55036;52.138;5.236;2024-01-16T01:58:44;2.50;91.20
68215;DHT22;55036;52.138;5.236;2024-01-16T02:01:14;2.50;91.20
68215;DHT22;55036;52.138;5.236;2024-01-16T02:03:45;2.50;91.50
68215;DHT22;55036;52.138;5.236;2024-01-16T02:06:13;2.60;91.50
68215;DHT22;55036;52.138;5.236;2024-01-16T02:08:42;2.50;91.80
68215;DHT22;55036;52.138;5.236;2024-01-16T02:11:09;2.50;91.90
68215;DHT22;55036;52.138;5.236;2024-01-16T02:13:37;2.50;91.90
68215;DHT22;55036;52.138;5.236;2024-01-16T02:16:03;2.60;91.80
68215;DHT22;55036;52.138;5.236;2024-01-16T02:18:32;2.60;91.70
68215;DHT22;55036;52.138;5.236;2024-01-16T02:21:05;2.70;91.70
68215;DHT22;55036;52.138;5.236;2024-01-16T02:23:33;2.70;91.70
68215;DHT22;55036;52.138;5.236;2024-01-16T02:26:00;2.70;91.70
68215;DHT22;55036;52.138;5.236;2024-01-16T02:28:29;2.70;91.60
68215;DHT22;55036;52.138;5.236;2024-01-16T02:30:55;2.70;91.60
68215;DHT22;55036;52.138;5.236;2024-01-16T02:33:23;2.70;91.50
68215;DHT22;55036;52.138;5.236;2024-01-16T02:35:50;2.70;91.60
68215;DHT22;55036;52.138;5.236;2024-01-16T02:38:17;2.80;91.70
68215;DHT22;55036;52.138;5.236;2024-01-16T02:40:43;2.80;91.60
68215;DHT22;55036;52.138;5.236;2024-01-16T02:43:10;2.80;91.70
68215;DHT22;55036;52.138;5.236;2024-01-16T02:45:37;2.80;91.60
68215;DHT22;55036;52.138;5.236;2024-01-16T02:48:04;2.80;91.50
68215;DHT22;55036;52.138;5.236;2024-01-16T02:50:32;2.80;91.60
68215;DHT22;55036;52.138;5.236;2024-01-16T02:52:59;2.80;91.60
68215;DHT22;55036;52.138;5.236;2024-01-16T02:55:25;2.80;91.40
68215;DHT22;55036;52.138;5.236;2024-01-16T02:57:52;2.80;91.40
68215;DHT22;55036;52.138;5.236;2024-01-16T03:00:19;2.80;91.30
68215;DHT22;55036;52.138;5.236;2024-01-16T03:02:46;2.80;91.30
68215;DHT22;55036;52.138;5.236;2024-01-16T03:05:13;2.70;91.30
68215;DHT22;55036;52.138;5.236;2024-01-16T03:07:40;2.80;91.40
68215;DHT22;55036;52.138;5.236;2024-01-16T03:10:07;2.80;91.60
68215;DHT22;55036;52.138;5.236;2024-01-16T03:12:34;2.80;91.70
68215;DHT22;55036;52.138;5.236;2024-01-16T03:15:01;2.80;91.70
68215;DHT22;55036;52.138;5.236;2024-01-16T03:17:28;2.80;91.70
68215;DHT22;55036;52.138;5.236;2024-01-16T03:19:55;2.80;91.50
68215;DHT22;55036;52.138;5.236;2024-01-16T03:22:21;2.80;91.50
68215;DHT22;55036;52.138;5.236;2024-01-16T03:24:49;2.80;91.50
68215;DHT22;55036;52.138;5.236;2024-01-16T03:27:16;2.90;91.60
68215;DHT22;55036;52.138;5.236;2024-01-16T03:29:43;2.90;91.70
68215;DHT22;55036;52.138;5.236;2024-01-16T03:32:10;2.90;91.50
68215;DHT22;55036;52.138;5.236;2024-01-16T03:34:37;2.90;91.50
68215;DHT22;55036;52.138;5.236;2024-01-16T03:37:03;2.90;91.50
68215;DHT22;55036;52.138;5.236;2024-01-16T03:39:30;2.80;91.40
68215;DHT22;55036;52.138;5.236;2024-01-16T03:41:57;2.80;91.50
68215;DHT22;55036;52.138;5.236;2024-01-16T03:44:24;2.80;91.60
68215;DHT22;55036;52.138;5.236;2024-01-16T03:46:50;2.80;91.50
68215;DHT22;55036;52.138;5.236;2024-01-16T03:49:17;2.80;91.40
68215;DHT22;55036;52.138;5.236;2024-01-16T03:51:44;2.80;91.50
68215;DHT22;55036;52.138;5.236;2024-01-16T03:54:13;2.80;91.50
68215;DHT22;55036;52.138;5.236;2024-01-16T03:56:40;2.80;91.40
68215;DHT22;55036;52.138;5.236;2024-01-16T03:59:07;2.70;91.40
68215;DHT22;55036;52.138;5.236;2024-01-16T04:01:34;2.60;91.50
68215;DHT22;55036;52.138;5.236;2024-01-16T04:04:03;2.60;91.80
68215;DHT22;55036;52.138;5.236;2024-01-16T04:06:33;2.70;91.70
68215;DHT22;55036;52.138;5.236;2024-01-16T04:09:00;2.70;91.50
68215;DHT22;55036;52.138;5.236;2024-01-16T04:11:27;2.80;91.60
68215;DHT22;55036;52.138;5.236;2024-01-16T04:13:54;2.80;91.60
68215;DHT22;55036;52.138;5.236;2024-01-16T04:16:21;2.80;91.50
68215;DHT22;55036;52.138;5.236;2024-01-16T04:18:48;2.80;91.50
68215;DHT22;55036;52.138;5.236;2024-01-16T04:21:15;2.80;91.50
68215;DHT22;55036;52.138;5.236;2024-01-16T04:23:46;2.90;91.60
68215;DHT22;55036;52.138;5.236;2024-01-16T04:26:13;2.80;91.50
68215;DHT22;55036;52.138;5.236;2024-01-16T04:28:40;2.80;91.50
68215;DHT22;55036;52.138;5.236;2024-01-16T04:31:07;2.80;91.30
68215;DHT22;55036;52.138;5.236;2024-01-16T04:33:34;2.80;91.50
68215;DHT22;55036;52.138;5.236;2024-01-16T04:36:01;2.80;91.50
68215;DHT22;55036;52.138;5.236;2024-01-16T04:38:27;2.80;91.30
68215;DHT22;55036;52.138;5.236;2024-01-16T04:40:54;2.80;91.40
68215;DHT22;55036;52.138;5.236;2024-01-16T04:43:22;2.70;91.50
68215;DHT22;55036;52.138;5.236;2024-01-16T04:45:49;2.70;91.50
68215;DHT22;55036;52.138;5.236;2024-01-16T04:48:15;2.70;91.50
68215;DHT22;55036;52.138;5.236;2024-01-16T04:50:42;2.70;91.70
68215;DHT22;55036;52.138;5.236;2024-01-16T04:53:09;2.70;91.70
68215;DHT22;55036;52.138;5.236;2024-01-16T04:55:36;2.80;91.50
68215;DHT22;55036;52.138;5.236;2024-01-16T04:58:03;2.80;91.60
68215;DHT22;55036;52.138;5.236;2024-01-16T05:00:31;2.70;91.50
68215;DHT22;55036;52.138;5.236;2024-01-16T05:02:58;2.70;91.60
68215;DHT22;55036;52.138;5.236;2024-01-16T05:05:25;2.80;91.50
68215;DHT22;55036;52.138;5.236;2024-01-16T05:07:55;2.70;91.30
68215;DHT22;55036;52.138;5.236;2024-01-16T05:10:22;2.50;91.60
68215;DHT22;55036;52.138;5.236;2024-01-16T05:12:49;2.50;91.90
68215;DHT22;55036;52.138;5.236;2024-01-16T05:15:16;2.50;92.00
68215;DHT22;55036;52.138;5.236;2024-01-16T05:17:42;2.60;91.90
68215;DHT22;55036;52.138;5.236;2024-01-16T05:20:09;2.60;91.90
68215;DHT22;55036;52.138;5.236;2024-01-16T05:22:37;2.60;91.70
68215;DHT22;55036;52.138;5.236;2024-01-16T05:25:06;2.60;91.90
68215;DHT22;55036;52.138;5.236;2024-01-16T05:27:35;2.60;91.70
68215;DHT22;55036;52.138;5.236;2024-01-16T05:30:02;2.50;91.90
68215;DHT22;55036;52.138;5.236;2024-01-16T05:32:29;2.50;92.30
68215;DHT22;55036;52.138;5.236;2024-01-16T05:34:56;2.50;92.70
68215;DHT22;55036;52.138;5.236;2024-01-16T05:37:23;2.40;92.50
68215;DHT22;55036;52.138;5.236;2024-01-16T05:39:50;2.50;92.50
68215;DHT22;55036;52.138;5.236;2024-01-16T05:42:17;2.40;92.60
68215;DHT22;55036;52.138;5.236;2024-01-16T05:44:44;2.40;92.60
68215;DHT22;55036;52.138;5.236;2024-01-16T05:47:11;2.20;93.20
68215;DHT22;55036;52.138;5.236;2024-01-16T05:49:38;2.20;93.40
68215;DHT22;55036;52.138;5.236;2024-01-16T05:52:05;2.10;93.50
68215;DHT22;55036;52.138;5.236;2024-01-16T05:54:32;2.10;93.70
68215;DHT22;55036;52.138;5.236;2024-01-16T05:56:58;2.10;93.90
68215;DHT22;55036;52.138;5.236;2024-01-16T05:59:25;2.30;93.60
68215;DHT22;55036;52.138;5.236;2024-01-16T06:01:52;2.30;93.50
68215;DHT22;55036;52.138;5.236;2024-01-16T06:04:19;2.30;93.80
68215;DHT22;55036;52.138;5.236;2024-01-16T06:06:45;2.30;93.60
68215;DHT22;55036;52.138;5.236;2024-01-16T06:09:14;2.40;93.40
68215;DHT22;55036;52.138;5.236;2024-01-16T06:11:41;2.40;93.30
68215;DHT22;55036;52.138;5.236;2024-01-16T06:14:08;2.40;93.60
68215;DHT22;55036;52.138;5.236;2024-01-16T06:16:36;2.40;93.50
68215;DHT22;55036;52.138;5.236;2024-01-16T06:19:03;2.40;93.70
68215;DHT22;55036;52.138;5.236;2024-01-16T06:21:30;2.50;93.50
68215;DHT22;55036;52.138;5.236;2024-01-16T06:23:56;2.60;93.30
68215;DHT22;55036;52.138;5.236;2024-01-16T06:26:23;2.60;93.40
68215;DHT22;55036;52.138;5.236;2024-01-16T06:28:50;2.60;93.40
68215;DHT22;55036;52.138;5.236;2024-01-16T06:31:17;2.70;93.40
68215;DHT22;55036;52.138;5.236;2024-01-16T06:33:44;2.70;93.10
68215;DHT22;55036;52.138;5.236;2024-01-16T06:36:12;2.70;93.20
68215;DHT22;55036;52.138;5.236;2024-01-16T06:38:39;2.70;92.90
68215;DHT22;55036;52.138;5.236;2024-01-16T06:41:07;2.60;93.00
68215;DHT22;55036;52.138;5.236;2024-01-16T06:43:34;2.60;93.10
68215;DHT22;55036;52.138;5.236;2024-01-16T06:46:00;2.60;92.90
68215;DHT22;55036;52.138;5.236;2024-01-16T06:48:27;2.60;93.00
68215;DHT22;55036;52.138;5.236;2024-01-16T06:50:54;2.50;93.30
68215;DHT22;55036;52.138;5.236;2024-01-16T06:53:21;2.60;93.20
68215;DHT22;55036;52.138;5.236;2024-01-16T06:55:48;2.50;93.30
68215;DHT22;55036;52.138;5.236;2024-01-16T06:58:15;2.50;93.40
68215;DHT22;55036;52.138;5.236;2024-01-16T07:00:42;2.60;93.30
68215;DHT22;55036;52.138;5.236;2024-01-16T07:03:09;2.60;93.10
68215;DHT22;55036;52.138;5.236;2024-01-16T07:05:36;2.50;92.90
68215;DHT22;55036;52.138;5.236;2024-01-16T07:08:03;2.60;93.20
68215;DHT22;55036;52.138;5.236;2024-01-16T07:10:30;2.70;93.10
68215;DHT22;55036;52.138;5.236;2024-01-16T07:12:58;2.70;93.00
68215;DHT22;55036;52.138;5.236;2024-01-16T07:15:25;2.80;93.00
68215;DHT22;55036;52.138;5.236;2024-01-16T07:17:51;2.80;92.90
68215;DHT22;55036;52.138;5.236;2024-01-16T07:20:18;2.90;92.90
68215;DHT22;55036;52.138;5.236;2024-01-16T07:22:45;2.90;92.70
68215;DHT22;55036;52.138;5.236;2024-01-16T07:25:12;2.90;92.80
68215;DHT22;55036;52.138;5.236;2024-01-16T07:27:39;2.90;92.60
68215;DHT22;55036;52.138;5.236;2024-01-16T07:30:06;2.90;92.60
68215;DHT22;55036;52.138;5.236;2024-01-16T07:32:33;2.90;92.50
68215;DHT22;55036;52.138;5.236;2024-01-16T07:35:02;2.90;92.50
68215;DHT22;55036;52.138;5.236;2024-01-16T07:37:30;2.80;92.40
68215;DHT22;55036;52.138;5.236;2024-01-16T07:39:56;2.80;92.40
68215;DHT22;55036;52.138;5.236;2024-01-16T07:42:23;2.80;92.40
68215;DHT22;55036;52.138;5.236;2024-01-16T07:44:50;2.80;92.30
68215;DHT22;55036;52.138;5.236;2024-01-16T07:47:18;2.80;92.40
68215;DHT22;55036;52.138;5.236;2024-01-16T07:49:45;2.80;92.40
68215;DHT22;55036;52.138;5.236;2024-01-16T07:52:12;2.80;92.30
68215;DHT22;55036;52.138;5.236;2024-01-16T07:54:39;2.80;92.30
68215;DHT22;55036;52.138;5.236;2024-01-16T07:57:05;2.80;92.30
68215;DHT22;55036;52.138;5.236;2024-01-16T07:59:33;2.90;92.40
68215;DHT22;55036;52.138;5.236;2024-01-16T08:02:00;2.90;92.30
68215;DHT22;55036;52.138;5.236;2024-01-16T08:04:26;2.90;92.30
68215;DHT22;55036;52.138;5.236;2024-01-16T08:06:53;2.80;92.30
68215;DHT22;55036;52.138;5.236;2024-01-16T08:09:20;2.80;92.20
68215;DHT22;55036;52.138;5.236;2024-01-16T08:11:47;2.90;92.20
68215;DHT22;55036;52.138;5.236;2024-01-16T08:14:14;2.90;92.30
68215;DHT22;55036;52.138;5.236;2024-01-16T08:16:41;2.90;92.30
68215;DHT22;55036;52.138;5.236;2024-01-16T08:19:08;3.00;92.30
68215;DHT22;55036;52.138;5.236;2024-01-16T08:21:35;3.00;92.20
68215;DHT22;55036;52.138;5.236;2024-01-16T08:24:01;3.00;92.20
68215;DHT22;55036;52.138;5.236;2024-01-16T08:26:28;3.00;92.30
68215;DHT22;55036;52.138;5.236;2024-01-16T08:28:55;3.00;92.20
68215;DHT22;55036;52.138;5.236;2024-01-16T08:31:22;3.10;92.20
68215;DHT22;55036;52.138;5.236;2024-01-16T08:33:49;3.10;92.20
68215;DHT22;55036;52.138;5.236;2024-01-16T08:36:19;3.20;92.10
68215;DHT22;55036;52.138;5.236;2024-01-16T08:38:46;3.20;92.10
68215;DHT22;55036;52.138;5.236;2024-01-16T08:41:13;3.20;92.00
68215;DHT22;55036;52.138;5.236;2024-01-16T08:43:40;3.10;91.70
68215;DHT22;55036;52.138;5.236;2024-01-16T08:46:07;3.10;91.90
68215;DHT22;55036;52.138;5.236;2024-01-16T08:48:33;3.10;91.80
68215;DHT22;55036;52.138;5.236;2024-01-16T08:51:01;3.10;91.80
68215;DHT22;55036;52.138;5.236;2024-01-16T08:53:30;3.20;91.90
68215;DHT22;55036;52.138;5.236;2024-01-16T08:55:57;3.20;92.00
68215;DHT22;55036;52.138;5.236;2024-01-16T08:58:24;3.20;91.60
68215;DHT22;55036;52.138;5.236;2024-01-16T09:00:51;3.20;91.60
68215;DHT22;55036;52.138;5.236;2024-01-16T09:03:18;3.20;91.80
68215;DHT22;55036;52.138;5.236;2024-01-16T09:05:45;3.30;91.80
68215;DHT22;55036;52.138;5.236;2024-01-16T09:08:12;3.40;91.70
68215;DHT22;55036;52.138;5.236;2024-01-16T09:10:39;3.40;91.60
68215;DHT22;55036;52.138;5.236;2024-01-16T09:13:06;3.40;91.50
68215;DHT22;55036;52.138;5.236;2024-01-16T09:15:33;3.40;91.50
68215;DHT22;55036;52.138;5.236;2024-01-16T09:18:01;3.30;91.30
68215;DHT22;55036;52.138;5.236;2024-01-16T09:20:28;3.30;91.30
68215;DHT22;55036;52.138;5.236;2024-01-16T09:22:55;3.30;91.70
68215;DHT22;55036;52.138;5.236;2024-01-16T09:25:22;3.30;91.20
68215;DHT22;55036;52.138;5.236;2024-01-16T09:27:51;3.30;91.30
68215;DHT22;55036;52.138;5.236;2024-01-16T09:30:18;3.30;91.30
68215;DHT22;55036;52.138;5.236;2024-01-16T09:32:45;3.40;91.20
68215;DHT22;55036;52.138;5.236;2024-01-16T09:35:12;3.40;91.00
68215;DHT22;55036;52.138;5.236;2024-01-16T09:37:39;3.40;91.10
68215;DHT22;55036;52.138;5.236;2024-01-16T09:40:07;3.40;91.00
68215;DHT22;55036;52.138;5.236;2024-01-16T09:42:34;3.50;91.20
68215;DHT22;55036;52.138;5.236;2024-01-16T09:45:01;3.60;91.10
68215;DHT22;55036;52.138;5.236;2024-01-16T09:47:31;3.60;90.90
68215;DHT22;55036;52.138;5.236;2024-01-16T09:50:03;3.70;90.90
68215;DHT22;55036;52.138;5.236;2024-01-16T09:52:30;3.60;91.00
68215;DHT22;55036;52.138;5.236;2024-01-16T09:54:56;3.70;90.70
68215;DHT22;55036;52.138;5.236;2024-01-16T09:57:25;3.50;90.90
68215;DHT22;55036;52.138;5.236;2024-01-16T09:59:52;3.50;90.60
68215;DHT22;55036;52.138;5.236;2024-01-16T10:02:20;3.60;90.70
68215;DHT22;55036;52.138;5.236;2024-01-16T10:04:49;3.70;90.30
68215;DHT22;55036;52.138;5.236;2024-01-16T10:07:17;3.60;90.40
68215;DHT22;55036;52.138;5.236;2024-01-16T10:09:45;3.60;89.50
68215;DHT22;55036;52.138;5.236;2024-01-16T10:12:11;3.60;90.60
68215;DHT22;55036;52.138;5.236;2024-01-16T10:14:39;3.70;90.60
68215;DHT22;55036;52.138;5.236;2024-01-16T10:17:07;3.80;89.90
68215;DHT22;55036;52.138;5.236;2024-01-16T10:19:48;3.60;90.00
68215;DHT22;55036;52.138;5.236;2024-01-16T10:22:23;3.60;90.20
68215;DHT22;55036;52.138;5.236;2024-01-16T10:25:13;3.90;90.40
68215;DHT22;55036;52.138;5.236;2024-01-16T10:27:43;4.20;90.80
68215;DHT22;55036;52.138;5.236;2024-01-16T10:30:10;4.50;90.50
68215;DHT22;55036;52.138;5.236;2024-01-16T10:32:39;4.60;88.50
68215;DHT22;55036;52.138;5.236;2024-01-16T10:35:12;4.60;86.90
68215;DHT22;55036;52.138;5.236;2024-01-16T10:40:09;4.80;86.70
68215;DHT22;55036;52.138;5.236;2024-01-16T10:42:36;5.00;85.30
68215;DHT22;55036;52.138;5.236;2024-01-16T10:45:05;5.00;82.80
68215;DHT22;55036;52.138;5.236;2024-01-16T10:47:32;4.80;84.70
68215;DHT22;55036;52.138;5.236;2024-01-16T10:50:04;5.00;84.60
68215;DHT22;55036;52.138;5.236;2024-01-16T10:52:33;5.00;84.20
68215;DHT22;55036;52.138;5.236;2024-01-16T10:55:03;4.90;84.60
68215;DHT22;55036;52.138;5.236;2024-01-16T10:57:33;4.80;84.50
68215;DHT22;55036;52.138;5.236;2024-01-16T11:00:05;4.90;82.70
68215;DHT22;55036;52.138;5.236;2024-01-16T11:02:44;5.00;84.70
68215;DHT22;55036;52.138;5.236;2024-01-16T11:05:17;5.10;83.30
68215;DHT22;55036;52.138;5.236;2024-01-16T11:07:44;5.20;84.50
68215;DHT22;55036;52.138;5.236;2024-01-16T11:10:12;5.20;84.40
68215;DHT22;55036;52.138;5.236;2024-01-16T11:12:40;5.20;81.50
68215;DHT22;55036;52.138;5.236;2024-01-16T11:15:10;5.10;83.60
68215;DHT22;55036;52.138;5.236;2024-01-16T11:17:39;5.20;82.30
68215;DHT22;55036;52.138;5.236;2024-01-16T11:20:08;5.20;82.30
68215;DHT22;55036;52.138;5.236;2024-01-16T11:22:46;5.10;82.30
68215;DHT22;55036;52.138;5.236;2024-01-16T11:25:16;5.10;82.50
68215;DHT22;55036;52.138;5.236;2024-01-16T11:27:44;5.00;78.40
68215;DHT22;55036;52.138;5.236;2024-01-16T11:30:12;4.90;80.60
68215;DHT22;55036;52.138;5.236;2024-01-16T11:32:40;5.00;82.10
68215;DHT22;55036;52.138;5.236;2024-01-16T11:35:08;5.10;81.90
68215;DHT22;55036;52.138;5.236;2024-01-16T11:37:36;5.10;81.10
68215;DHT22;55036;52.138;5.236;2024-01-16T11:42:44;5.20;78.20
68215;DHT22;55036;52.138;5.236;2024-01-16T11:48:17;5.00;79.50
68215;DHT22;55036;52.138;5.236;2024-01-16T11:50:46;5.00;78.10
68215;DHT22;55036;52.138;5.236;2024-01-16T11:53:34;5.00;77.80
68215;DHT22;55036;52.138;5.236;2024-01-16T11:56:11;5.00;78.90
68215;DHT22;55036;52.138;5.236;2024-01-16T11:58:48;5.10;79.60
68215;DHT22;55036;52.138;5.236;2024-01-16T12:01:20;5.40;80.60
68215;DHT22;55036;52.138;5.236;2024-01-16T12:04:04;5.40;79.00
68215;DHT22;55036;52.138;5.236;2024-01-16T12:06:33;5.50;79.30
68215;DHT22;55036;52.138;5.236;2024-01-16T12:09:16;5.70;77.40
68215;DHT22;55036;52.138;5.236;2024-01-16T12:11:44;5.80;78.20
68215;DHT22;55036;52.138;5.236;2024-01-16T12:14:21;5.50;73.70
68215;DHT22;55036;52.138;5.236;2024-01-16T12:16:48;5.30;76.00
68215;DHT22;55036;52.138;5.236;2024-01-16T12:19:15;5.30;76.60
68215;DHT22;55036;52.138;5.236;2024-01-16T12:21:44;5.30;78.50
68215;DHT22;55036;52.138;5.236;2024-01-16T12:24:11;5.20;75.60
68215;DHT22;55036;52.138;5.236;2024-01-16T12:26:43;5.10;76.10
68215;DHT22;55036;52.138;5.236;2024-01-16T12:29:10;4.90;76.50
68215;DHT22;55036;52.138;5.236;2024-01-16T12:31:37;5.00;77.30
68215;DHT22;55036;52.138;5.236;2024-01-16T12:34:08;4.90;76.10
68215;DHT22;55036;52.138;5.236;2024-01-16T12:36:37;4.80;76.10
68215;DHT22;55036;52.138;5.236;2024-01-16T12:39:04;4.70;77.40
68215;DHT22;55036;52.138;5.236;2024-01-16T12:41:37;4.80;77.40
68215;DHT22;55036;52.138;5.236;2024-01-16T12:44:09;4.90;76.50
68215;DHT22;55036;52.138;5.236;2024-01-16T12:46:56;4.70;76.50
68215;DHT22;55036;52.138;5.236;2024-01-16T12:49:23;4.80;77.60
68215;DHT22;55036;52.138;5.236;2024-01-16T12:51:50;4.90;77.90
68215;DHT22;55036;52.138;5.236;2024-01-16T12:54:18;5.00;78.20
68215;DHT22;55036;52.138;5.236;2024-01-16T12:56:46;5.10;78.00
68215;DHT22;55036;52.138;5.236;2024-01-16T12:59:14;5.20;78.00
68215;DHT22;55036;52.138;5.236;2024-01-16T13:01:42;5.30;77.30
68215;DHT22;55036;52.138;5.236;2024-01-16T13:04:11;5.20;77.20
68215;DHT22;55036;52.138;5.236;2024-01-16T13:06:38;5.20;77.90
68215;DHT22;55036;52.138;5.236;2024-01-16T13:09:10;5.20;77.10
68215;DHT22;55036;52.138;5.236;2024-01-16T13:11:59;5.20;74.50
68215;DHT22;55036;52.138;5.236;2024-01-16T13:14:27;5.10;76.20
68215;DHT22;55036;52.138;5.236;2024-01-16T13:16:54;5.20;77.20
68215;DHT22;55036;52.138;5.236;2024-01-16T13:19:22;5.40;77.90
68215;DHT22;55036;52.138;5.236;2024-01-16T13:21:50;5.50;75.60
68215;DHT22;55036;52.138;5.236;2024-01-16T13:24:17;5.50;77.10
68215;DHT22;55036;52.138;5.236;2024-01-16T13:26:47;5.50;75.90
68215;DHT22;55036;52.138;5.236;2024-01-16T13:29:14;5.30;75.20
68215;DHT22;55036;52.138;5.236;2024-01-16T13:31:42;5.10;75.70
68215;DHT22;55036;52.138;5.236;2024-01-16T13:34:10;5.10;76.50
68215;DHT22;55036;52.138;5.236;2024-01-16T13:36:37;5.10;75.70
68215;DHT22;55036;52.138;5.236;2024-01-16T13:39:24;5.10;76.70
68215;DHT22;55036;52.138;5.236;2024-01-16T13:41:52;5.20;76.60
68215;DHT22;55036;52.138;5.236;2024-01-16T13:44:19;5.10;75.90
68215;DHT22;55036;52.138;5.236;2024-01-16T13:46:46;5.00;75.60
68215;DHT22;55036;52.138;5.236;2024-01-16T13:49:15;4.80;75.10
68215;DHT22;55036;52.138;5.236;2024-01-16T13:51:44;4.70;75.80
68215;DHT22;55036;52.138;5.236;2024-01-16T13:54:11;4.70;76.10
68215;DHT22;55036;52.138;5.236;2024-01-16T13:56:38;4.70;76.80
68215;DHT22;55036;52.138;5.236;2024-01-16T13:59:25;4.80;76.50
68215;DHT22;55036;52.138;5.236;2024-01-16T14:01:52;5.00;76.60
68215;DHT22;55036;52.138;5.236;2024-01-16T14:04:19;4.90;76.10
68215;DHT22;55036;52.138;5.236;2024-01-16T14:06:47;4.90;75.30
68215;DHT22;55036;52.138;5.236;2024-01-16T14:09:35;4.80;76.40
68215;DHT22;55036;52.138;5.236;2024-01-16T14:12:02;4.80;75.50
68215;DHT22;55036;52.138;5.236;2024-01-16T14:14:29;4.70;75.70
68215;DHT22;55036;52.138;5.236;2024-01-16T14:16:57;4.70;76.10
68215;DHT22;55036;52.138;5.236;2024-01-16T14:19:28;4.70;75.80
68215;DHT22;55036;52.138;5.236;2024-01-16T14:21:57;4.60;74.90
68215;DHT22;55036;52.138;5.236;2024-01-16T14:24:24;4.60;75.80
68215;DHT22;55036;52.138;5.236;2024-01-16T14:26:50;4.60;75.30
68215;DHT22;55036;52.138;5.236;2024-01-16T14:29:17;4.50;74.70
68215;DHT22;55036;52.138;5.236;2024-01-16T14:31:45;4.50;75.20
68215;DHT22;55036;52.138;5.236;2024-01-16T14:34:16;4.40;75.20
68215;DHT22;55036;52.138;5.236;2024-01-16T14:36:45;4.50;75.30
68215;DHT22;55036;52.138;5.236;2024-01-16T14:39:13;4.60;75.60
68215;DHT22;55036;52.138;5.236;2024-01-16T14:41:43;4.60;74.80
68215;DHT22;55036;52.138;5.236;2024-01-16T14:44:10;4.60;75.40
68215;DHT22;55036;52.138;5.236;2024-01-16T14:46:37;4.60;74.20
68215;DHT22;55036;52.138;5.236;2024-01-16T14:49:04;4.60;75.10
68215;DHT22;55036;52.138;5.236;2024-01-16T14:51:32;4.60;75.10
68215;DHT22;55036;52.138;5.236;2024-01-16T14:53:59;4.60;75.20
68215;DHT22;55036;52.138;5.236;2024-01-16T14:56:28;4.60;75.20
68215;DHT22;55036;52.138;5.236;2024-01-16T14:58:57;4.60;74.60
68215;DHT22;55036;52.138;5.236;2024-01-16T15:01:24;4.40;75.10
68215;DHT22;55036;52.138;5.236;2024-01-16T15:03:51;4.40;75.20
68215;DHT22;55036;52.138;5.236;2024-01-16T15:06:18;4.40;75.60
68215;DHT22;55036;52.138;5.236;2024-01-16T15:08:45;4.40;75.80
68215;DHT22;55036;52.138;5.236;2024-01-16T15:11:11;4.40;75.80
68215;DHT22;55036;52.138;5.236;2024-01-16T15:13:38;4.30;75.80
68215;DHT22;55036;52.138;5.236;2024-01-16T15:16:05;4.10;75.90
68215;DHT22;55036;52.138;5.236;2024-01-16T15:18:32;4.20;75.80
68215;DHT22;55036;52.138;5.236;2024-01-16T15:20:59;4.10;76.20
68215;DHT22;55036;52.138;5.236;2024-01-16T15:23:26;4.10;76.20
68215;DHT22;55036;52.138;5.236;2024-01-16T15:25:54;4.10;76.20
68215;DHT22;55036;52.138;5.236;2024-01-16T15:28:21;4.10;76.40
68215;DHT22;55036;52.138;5.236;2024-01-16T15:30:48;4.10;76.50
68215;DHT22;55036;52.138;5.236;2024-01-16T15:33:15;4.10;76.50
68215;DHT22;55036;52.138;5.236;2024-01-16T15:35:42;4.00;76.50
68215;DHT22;55036;52.138;5.236;2024-01-16T15:38:09;3.90;76.90
68215;DHT22;55036;52.138;5.236;2024-01-16T15:40:37;3.90;76.90
68215;DHT22;55036;52.138;5.236;2024-01-16T15:43:04;3.90;77.10
68215;DHT22;55036;52.138;5.236;2024-01-16T15:45:31;3.90;77.30
68215;DHT22;55036;52.138;5.236;2024-01-16T15:47:58;3.80;77.40
68215;DHT22;55036;52.138;5.236;2024-01-16T15:50:25;3.80;77.60
68215;DHT22;55036;52.138;5.236;2024-01-16T15:52:54;3.80;77.60
68215;DHT22;55036;52.138;5.236;2024-01-16T15:55:21;3.90;77.60
68215;DHT22;55036;52.138;5.236;2024-01-16T15:57:48;3.90;77.70